sensor_id;sensor_type;location;lat;lon;timestamp;P1;durP1;ratioP1;P2;durP2;ratioP2
23730;SDS011;12046;44.702;10.622;2024-01-10T00:00:12;6.50;;;5.03;;
23730;SDS011;12046;44.702;10.622;2024-01-10T00:02:38;6.97;;;4.85;;
23730;SDS011;12046;44.702;10.622;2024-01-10T00:05:04;8.07;;;5.25;;
23730;SDS011;12046;44.702;10.622;2024-01-10T00:07:30;6.53;;;4.82;;
23730;SDS011;12046;44.702;10.622;2024-01-10T00:09:55;8.27;;;5.38;;
23730;SDS011;12046;44.702;10.622;2024-01-10T00:12:23;8.95;;;5.30;;
23730;SDS011;12046;44.702;10.622;2024-01-10T00:14:48;6.43;;;5.07;;
23730;SDS011;12046;44.702;10.622;2024-01-10T00:17:14;7.15;;;5.30;;
23730;SDS011;12046;44.702;10.622;2024-01-10T00:19:40;6.45;;;5.22;;
23730;SDS011;12046;44.702;10.622;2024-01-10T00:22:05;7.72;;;4.85;;
23730;SDS011;12046;44.702;10.622;2024-01-10T00:24:31;6.90;;;5.10;;
23730;SDS011;12046;44.702;10.622;2024-01-10T00:26:56;9.23;;;5.28;;
23730;SDS011;12046;44.702;10.622;2024-01-10T00:29:22;6.97;;;4.85;;
23730;SDS011;12046;44.702;10.622;2024-01-10T00:31:48;7.35;;;5.20;;
23730;SDS011;12046;44.702;10.622;2024-01-10T00:34:14;6.93;;;4.88;;
23730;SDS011;12046;44.702;10.622;2024-01-10T00:36:39;8.98;;;5.38;;
23730;SDS011;12046;44.702;10.622;2024-01-10T00:39:05;7.18;;;5.35;;
23730;SDS011;12046;44.702;10.622;2024-01-10T00:41:31;8.50;;;5.20;;
23730;SDS011;12046;44.702;10.622;2024-01-10T00:43:57;7.57;;;5.18;;
23730;SDS011;12046;44.702;10.622;2024-01-10T00:46:23;7.28;;;5.15;;
23730;SDS011;12046;44.702;10.622;2024-01-10T00:48:48;7.15;;;4.70;;
23730;SDS011;12046;44.702;10.622;2024-01-10T00:51:14;5.72;;;5.03;;
23730;SDS011;12046;44.702;10.622;2024-01-10T00:53:39;7.63;;;5.53;;
23730;SDS011;12046;44.702;10.622;2024-01-10T00:56:05;9.20;;;5.90;;
23730;SDS011;12046;44.702;10.622;2024-01-10T00:58:31;7.43;;;6.00;;
23730;SDS011;12046;44.702;10.622;2024-01-10T01:00:57;8.45;;;6.30;;
23730;SDS011;12046;44.702;10.622;2024-01-10T01:03:23;9.50;;;6.63;;
23730;SDS011;12046;44.702;10.622;2024-01-10T01:05:48;11.32;;;7.15;;
23730;SDS011;12046;44.702;10.622;2024-01-10T01:08:14;13.48;;;7.85;;
23730;SDS011;12046;44.702;10.622;2024-01-10T01:10:39;9.90;;;7.60;;
23730;SDS011;12046;44.702;10.622;2024-01-10T01:13:05;10.98;;;7.93;;
23730;SDS011;12046;44.702;10.622;2024-01-10T01:15:31;12.65;;;8.63;;
23730;SDS011;12046;44.702;10.622;2024-01-10T01:17:56;11.75;;;8.13;;
23730;SDS011;12046;44.702;10.622;2024-01-10T01:20:22;10.57;;;7.10;;
23730;SDS011;12046;44.702;10.622;2024-01-10T01:22:48;10.57;;;7.45;;
23730;SDS011;12046;44.702;10.622;2024-01-10T01:25:13;12.15;;;8.68;;
23730;SDS011;12046;44.702;10.622;2024-01-10T01:27:39;14.73;;;9.82;;
23730;SDS011;12046;44.702;10.622;2024-01-10T01:30:05;15.88;;;10.88;;
23730;SDS011;12046;44.702;10.622;2024-01-10T01:32:31;15.00;;;10.00;;
23730;SDS011;12046;44.702;10.622;2024-01-10T01:34:57;14.48;;;9.20;;
23730;SDS011;12046;44.702;10.622;2024-01-10T01:37:22;11.98;;;9.02;;
23730;SDS011;12046;44.702;10.622;2024-01-10T01:39:48;13.20;;;8.48;;
23730;SDS011;12046;44.702;10.622;2024-01-10T01:42:15;11.43;;;8.27;;
23730;SDS011;12046;44.702;10.622;2024-01-10T01:44:41;10.88;;;8.38;;
23730;SDS011;12046;44.702;10.622;2024-01-10T01:47:06;12.32;;;8.27;;
23730;SDS011;12046;44.702;10.622;2024-01-10T01:49:32;11.63;;;8.02;;
23730;SDS011;12046;44.702;10.622;2024-01-10T01:51:57;11.82;;;7.65;;
23730;SDS011;12046;44.702;10.622;2024-01-10T01:54:24;10.65;;;7.43;;
23730;SDS011;12046;44.702;10.622;2024-01-10T01:56:51;10.85;;;7.70;;
23730;SDS011;12046;44.702;10.622;2024-01-10T01:59:16;13.80;;;8.32;;
23730;SDS011;12046;44.702;10.622;2024-01-10T02:01:42;12.48;;;8.35;;
23730;SDS011;12046;44.702;10.622;2024-01-10T02:04:08;13.38;;;8.20;;
23730;SDS011;12046;44.702;10.622;2024-01-10T02:06:34;10.60;;;8.48;;
23730;SDS011;12046;44.702;10.622;2024-01-10T02:09:00;13.50;;;8.85;;
23730;SDS011;12046;44.702;10.622;2024-01-10T02:11:25;13.05;;;8.25;;
23730;SDS011;12046;44.702;10.622;2024-01-10T02:13:52;10.07;;;7.55;;
23730;SDS011;12046;44.702;10.622;2024-01-10T02:16:20;13.63;;;8.60;;
23730;SDS011;12046;44.702;10.622;2024-01-10T02:18:46;12.63;;;7.82;;
23730;SDS011;12046;44.702;10.622;2024-01-10T02:21:12;12.10;;;8.02;;
23730;SDS011;12046;44.702;10.622;2024-01-10T02:23:37;11.05;;;7.80;;
23730;SDS011;12046;44.702;10.622;2024-01-10T02:26:03;10.43;;;7.07;;
23730;SDS011;12046;44.702;10.622;2024-01-10T02:28:29;9.40;;;7.13;;
23730;SDS011;12046;44.702;10.622;2024-01-10T02:30:55;11.07;;;7.00;;
23730;SDS011;12046;44.702;10.622;2024-01-10T02:33:21;9.30;;;6.60;;
23730;SDS011;12046;44.702;10.622;2024-01-10T02:35:47;11.68;;;7.35;;
23730;SDS011;12046;44.702;10.622;2024-01-10T02:38:12;11.10;;;7.47;;
23730;SDS011;12046;44.702;10.622;2024-01-10T02:40:38;9.73;;;6.80;;
23730;SDS011;12046;44.702;10.622;2024-01-10T02:43:04;9.75;;;7.15;;
23730;SDS011;12046;44.702;10.622;2024-01-10T02:45:30;9.77;;;7.15;;
23730;SDS011;12046;44.702;10.622;2024-01-10T02:47:55;10.88;;;7.15;;
23730;SDS011;12046;44.702;10.622;2024-01-10T02:50:21;10.48;;;7.35;;
23730;SDS011;12046;44.702;10.622;2024-01-10T02:52:47;12.40;;;7.53;;
23730;SDS011;12046;44.702;10.622;2024-01-10T02:55:13;9.82;;;6.88;;
23730;SDS011;12046;44.702;10.622;2024-01-10T02:57:38;9.18;;;7.00;;
23730;SDS011;12046;44.702;10.622;2024-01-10T03:00:04;10.95;;;7.13;;
23730;SDS011;12046;44.702;10.622;2024-01-10T03:02:31;9.02;;;7.00;;
23730;SDS011;12046;44.702;10.622;2024-01-10T03:04:56;7.88;;;6.43;;
23730;SDS011;12046;44.702;10.622;2024-01-10T03:07:22;9.77;;;7.25;;
23730;SDS011;12046;44.702;10.622;2024-01-10T03:09:50;9.95;;;6.63;;
23730;SDS011;12046;44.702;10.622;2024-01-10T03:12:16;9.00;;;6.07;;
23730;SDS011;12046;44.702;10.622;2024-01-10T03:14:41;8.80;;;6.47;;
23730;SDS011;12046;44.702;10.622;2024-01-10T03:17:07;8.88;;;6.47;;
23730;SDS011;12046;44.702;10.622;2024-01-10T03:19:32;9.30;;;6.25;;
23730;SDS011;12046;44.702;10.622;2024-01-10T03:21:58;8.85;;;6.05;;
23730;SDS011;12046;44.702;10.622;2024-01-10T03:24:24;10.40;;;6.95;;
23730;SDS011;12046;44.702;10.622;2024-01-10T03:26:52;9.95;;;6.93;;
23730;SDS011;12046;44.702;10.622;2024-01-10T03:29:18;7.68;;;5.70;;
23730;SDS011;12046;44.702;10.622;2024-01-10T03:31:44;9.68;;;6.78;;
23730;SDS011;12046;44.702;10.622;2024-01-10T03:34:09;8.70;;;6.22;;
23730;SDS011;12046;44.702;10.622;2024-01-10T03:36:35;7.55;;;5.57;;
23730;SDS011;12046;44.702;10.622;2024-01-10T03:39:01;9.77;;;6.55;;
23730;SDS011;12046;44.702;10.622;2024-01-10T03:41:26;10.52;;;6.80;;
23730;SDS011;12046;44.702;10.622;2024-01-10T03:43:52;10.70;;;6.35;;
23730;SDS011;12046;44.702;10.622;2024-01-10T03:46:18;8.10;;;5.75;;
23730;SDS011;12046;44.702;10.622;2024-01-10T03:48:44;7.47;;;5.68;;
23730;SDS011;12046;44.702;10.622;2024-01-10T03:51:17;10.50;;;6.47;;
23730;SDS011;12046;44.702;10.622;2024-01-10T03:53:47;7.65;;;5.68;;
23730;SDS011;12046;44.702;10.622;2024-01-10T03:56:14;11.23;;;6.75;;
23730;SDS011;12046;44.702;10.622;2024-01-10T03:58:40;9.93;;;6.63;;
23730;SDS011;12046;44.702;10.622;2024-01-10T04:01:09;8.20;;;6.25;;
23730;SDS011;12046;44.702;10.622;2024-01-10T04:03:35;14.18;;;7.15;;
23730;SDS011;12046;44.702;10.622;2024-01-10T04:06:01;9.38;;;7.30;;
23730;SDS011;12046;44.702;10.622;2024-01-10T04:08:27;11.73;;;7.28;;
23730;SDS011;12046;44.702;10.622;2024-01-10T04:10:53;10.25;;;6.93;;
23730;SDS011;12046;44.702;10.622;2024-01-10T04:13:19;9.85;;;6.60;;
23730;SDS011;12046;44.702;10.622;2024-01-10T04:15:44;9.15;;;6.30;;
23730;SDS011;12046;44.702;10.622;2024-01-10T04:18:10;9.07;;;6.18;;
23730;SDS011;12046;44.702;10.622;2024-01-10T04:20:35;8.20;;;5.97;;
23730;SDS011;12046;44.702;10.622;2024-01-10T04:23:02;8.25;;;6.18;;
23730;SDS011;12046;44.702;10.622;2024-01-10T04:25:27;8.00;;;6.03;;
23730;SDS011;12046;44.702;10.622;2024-01-10T04:27:53;9.70;;;6.10;;
23730;SDS011;12046;44.702;10.622;2024-01-10T04:30:18;7.80;;;5.47;;
23730;SDS011;12046;44.702;10.622;2024-01-10T04:32:44;7.60;;;4.90;;
23730;SDS011;12046;44.702;10.622;2024-01-10T04:35:11;7.70;;;5.30;;
23730;SDS011;12046;44.702;10.622;2024-01-10T04:37:37;7.65;;;5.03;;
23730;SDS011;12046;44.702;10.622;2024-01-10T04:40:02;8.60;;;5.70;;
23730;SDS011;12046;44.702;10.622;2024-01-10T04:42:29;8.35;;;5.25;;
23730;SDS011;12046;44.702;10.622;2024-01-10T04:44:55;8.85;;;6.53;;
23730;SDS011;12046;44.702;10.622;2024-01-10T04:47:21;9.85;;;7.00;;
23730;SDS011;12046;44.702;10.622;2024-01-10T04:49:47;12.27;;;7.07;;
23730;SDS011;12046;44.702;10.622;2024-01-10T04:52:13;8.63;;;6.70;;
23730;SDS011;12046;44.702;10.622;2024-01-10T04:54:38;11.43;;;7.28;;
23730;SDS011;12046;44.702;10.622;2024-01-10T04:57:04;8.95;;;6.32;;
23730;SDS011;12046;44.702;10.622;2024-01-10T04:59:30;8.02;;;6.35;;
23730;SDS011;12046;44.702;10.622;2024-01-10T05:01:55;9.25;;;6.30;;
23730;SDS011;12046;44.702;10.622;2024-01-10T05:04:21;7.95;;;5.97;;
23730;SDS011;12046;44.702;10.622;2024-01-10T05:06:47;9.52;;;6.32;;
23730;SDS011;12046;44.702;10.622;2024-01-10T05:09:12;8.77;;;6.28;;
23730;SDS011;12046;44.702;10.622;2024-01-10T05:11:39;11.93;;;6.70;;
23730;SDS011;12046;44.702;10.622;2024-01-10T05:14:05;10.18;;;7.00;;
23730;SDS011;12046;44.702;10.622;2024-01-10T05:16:30;12.30;;;6.55;;
23730;SDS011;12046;44.702;10.622;2024-01-10T05:18:57;10.50;;;6.78;;
23730;SDS011;12046;44.702;10.622;2024-01-10T05:21:26;8.75;;;6.07;;
23730;SDS011;12046;44.702;10.622;2024-01-10T05:23:51;8.95;;;5.95;;
23730;SDS011;12046;44.702;10.622;2024-01-10T05:26:17;8.02;;;5.63;;
23730;SDS011;12046;44.702;10.622;2024-01-10T05:28:43;11.25;;;6.40;;
23730;SDS011;12046;44.702;10.622;2024-01-10T05:31:08;7.85;;;5.30;;
23730;SDS011;12046;44.702;10.622;2024-01-10T05:33:34;8.75;;;6.05;;
23730;SDS011;12046;44.702;10.622;2024-01-10T05:36:00;6.97;;;5.13;;
23730;SDS011;12046;44.702;10.622;2024-01-10T05:38:25;7.50;;;5.55;;
23730;SDS011;12046;44.702;10.622;2024-01-10T05:40:51;8.80;;;5.47;;
23730;SDS011;12046;44.702;10.622;2024-01-10T05:43:17;7.20;;;5.10;;
23730;SDS011;12046;44.702;10.622;2024-01-10T05:45:42;9.55;;;5.95;;
23730;SDS011;12046;44.702;10.622;2024-01-10T05:48:09;7.10;;;5.47;;
23730;SDS011;12046;44.702;10.622;2024-01-10T05:50:35;7.85;;;5.90;;
23730;SDS011;12046;44.702;10.622;2024-01-10T05:53:01;9.60;;;6.22;;
23730;SDS011;12046;44.702;10.622;2024-01-10T05:55:28;6.75;;;5.32;;
23730;SDS011;12046;44.702;10.622;2024-01-10T05:57:54;9.18;;;5.70;;
23730;SDS011;12046;44.702;10.622;2024-01-10T06:00:20;7.80;;;5.70;;
23730;SDS011;12046;44.702;10.622;2024-01-10T06:02:46;9.50;;;6.30;;
23730;SDS011;12046;44.702;10.622;2024-01-10T06:05:12;10.15;;;6.80;;
23730;SDS011;12046;44.702;10.622;2024-01-10T06:07:38;11.57;;;6.60;;
23730;SDS011;12046;44.702;10.622;2024-01-10T06:10:05;8.93;;;6.30;;
23730;SDS011;12046;44.702;10.622;2024-01-10T06:12:30;9.50;;;6.30;;
23730;SDS011;12046;44.702;10.622;2024-01-10T06:14:56;8.20;;;6.22;;
23730;SDS011;12046;44.702;10.622;2024-01-10T06:17:23;9.23;;;6.05;;
23730;SDS011;12046;44.702;10.622;2024-01-10T06:19:48;8.57;;;6.35;;
23730;SDS011;12046;44.702;10.622;2024-01-10T06:22:14;7.72;;;5.75;;
23730;SDS011;12046;44.702;10.622;2024-01-10T06:24:40;7.85;;;5.95;;
23730;SDS011;12046;44.702;10.622;2024-01-10T06:27:08;8.32;;;5.85;;
23730;SDS011;12046;44.702;10.622;2024-01-10T06:29:35;10.43;;;6.10;;
23730;SDS011;12046;44.702;10.622;2024-01-10T06:32:00;7.85;;;5.82;;
23730;SDS011;12046;44.702;10.622;2024-01-10T06:34:27;10.02;;;6.30;;
23730;SDS011;12046;44.702;10.622;2024-01-10T06:36:52;10.52;;;5.88;;
23730;SDS011;12046;44.702;10.622;2024-01-10T06:39:18;9.07;;;5.88;;
23730;SDS011;12046;44.702;10.622;2024-01-10T06:41:48;9.77;;;6.15;;
23730;SDS011;12046;44.702;10.622;2024-01-10T06:44:14;9.35;;;5.80;;
23730;SDS011;12046;44.702;10.622;2024-01-10T06:46:39;7.72;;;5.75;;
23730;SDS011;12046;44.702;10.622;2024-01-10T06:49:05;13.55;;;7.03;;
23730;SDS011;12046;44.702;10.622;2024-01-10T06:51:32;8.23;;;6.00;;
23730;SDS011;12046;44.702;10.622;2024-01-10T06:53:58;8.73;;;6.22;;
23730;SDS011;12046;44.702;10.622;2024-01-10T06:56:30;13.35;;;6.57;;
23730;SDS011;12046;44.702;10.622;2024-01-10T06:58:56;10.13;;;5.90;;
23730;SDS011;12046;44.702;10.622;2024-01-10T07:01:22;8.63;;;5.97;;
23730;SDS011;12046;44.702;10.622;2024-01-10T07:03:48;7.60;;;5.72;;
23730;SDS011;12046;44.702;10.622;2024-01-10T07:06:14;8.35;;;5.85;;
23730;SDS011;12046;44.702;10.622;2024-01-10T07:08:43;10.52;;;6.60;;
23730;SDS011;12046;44.702;10.622;2024-01-10T07:11:09;10.50;;;6.00;;
23730;SDS011;12046;44.702;10.622;2024-01-10T07:13:36;8.13;;;5.72;;
23730;SDS011;12046;44.702;10.622;2024-01-10T07:16:02;9.70;;;6.28;;
23730;SDS011;12046;44.702;10.622;2024-01-10T07:18:28;8.00;;;6.13;;
23730;SDS011;12046;44.702;10.622;2024-01-10T07:20:54;10.32;;;6.45;;
23730;SDS011;12046;44.702;10.622;2024-01-10T07:23:20;10.38;;;7.07;;
23730;SDS011;12046;44.702;10.622;2024-01-10T07:25:46;10.90;;;7.10;;
23730;SDS011;12046;44.702;10.622;2024-01-10T07:28:12;10.48;;;7.03;;
23730;SDS011;12046;44.702;10.622;2024-01-10T07:30:37;10.23;;;6.88;;
23730;SDS011;12046;44.702;10.622;2024-01-10T07:33:03;11.05;;;6.65;;
23730;SDS011;12046;44.702;10.622;2024-01-10T07:35:29;9.45;;;6.45;;
23730;SDS011;12046;44.702;10.622;2024-01-10T07:37:56;10.30;;;6.72;;
23730;SDS011;12046;44.702;10.622;2024-01-10T07:40:21;14.32;;;8.77;;
23730;SDS011;12046;44.702;10.622;2024-01-10T07:42:48;12.55;;;7.68;;
23730;SDS011;12046;44.702;10.622;2024-01-10T07:45:13;10.45;;;7.20;;
23730;SDS011;12046;44.702;10.622;2024-01-10T07:47:39;10.93;;;8.02;;
23730;SDS011;12046;44.702;10.622;2024-01-10T07:50:06;8.43;;;6.85;;
23730;SDS011;12046;44.702;10.622;2024-01-10T07:52:32;11.68;;;7.00;;
23730;SDS011;12046;44.702;10.622;2024-01-10T07:54:57;10.50;;;6.88;;
23730;SDS011;12046;44.702;10.622;2024-01-10T07:57:23;8.70;;;6.55;;
23730;SDS011;12046;44.702;10.622;2024-01-10T07:59:49;17.35;;;9.13;;
23730;SDS011;12046;44.702;10.622;2024-01-10T08:02:14;14.05;;;8.23;;
23730;SDS011;12046;44.702;10.622;2024-01-10T08:04:40;11.68;;;7.70;;
23730;SDS011;12046;44.702;10.622;2024-01-10T08:07:06;9.65;;;7.50;;
23730;SDS011;12046;44.702;10.622;2024-01-10T08:09:32;9.98;;;7.15;;
23730;SDS011;12046;44.702;10.622;2024-01-10T08:11:57;10.27;;;6.53;;
23730;SDS011;12046;44.702;10.622;2024-01-10T08:14:24;8.90;;;6.55;;
23730;SDS011;12046;44.702;10.622;2024-01-10T08:16:50;9.75;;;6.50;;
23730;SDS011;12046;44.702;10.622;2024-01-10T08:19:19;7.88;;;6.65;;
23730;SDS011;12046;44.702;10.622;2024-01-10T08:21:44;12.80;;;6.85;;
23730;SDS011;12046;44.702;10.622;2024-01-10T08:24:10;8.70;;;6.40;;
23730;SDS011;12046;44.702;10.622;2024-01-10T08:26:36;9.55;;;6.32;;
23730;SDS011;12046;44.702;10.622;2024-01-10T08:29:03;10.15;;;7.30;;
23730;SDS011;12046;44.702;10.622;2024-01-10T08:31:29;11.15;;;7.20;;
23730;SDS011;12046;44.702;10.622;2024-01-10T08:33:55;14.15;;;7.57;;
23730;SDS011;12046;44.702;10.622;2024-01-10T08:36:22;14.18;;;7.43;;
23730;SDS011;12046;44.702;10.622;2024-01-10T08:38:49;8.98;;;7.00;;
23730;SDS011;12046;44.702;10.622;2024-01-10T08:41:15;10.05;;;7.93;;
23730;SDS011;12046;44.702;10.622;2024-01-10T08:43:42;10.48;;;7.18;;
23730;SDS011;12046;44.702;10.622;2024-01-10T08:46:08;11.82;;;7.57;;
23730;SDS011;12046;44.702;10.622;2024-01-10T08:48:34;10.13;;;7.65;;
23730;SDS011;12046;44.702;10.622;2024-01-10T08:50:59;10.13;;;7.43;;
23730;SDS011;12046;44.702;10.622;2024-01-10T08:53:25;10.80;;;8.00;;
23730;SDS011;12046;44.702;10.622;2024-01-10T08:55:51;8.52;;;6.75;;
23730;SDS011;12046;44.702;10.622;2024-01-10T08:58:17;10.60;;;7.95;;
23730;SDS011;12046;44.702;10.622;2024-01-10T09:00:42;9.15;;;7.60;;
23730;SDS011;12046;44.702;10.622;2024-01-10T09:03:08;11.18;;;8.40;;
23730;SDS011;12046;44.702;10.622;2024-01-10T09:05:34;9.82;;;8.05;;
23730;SDS011;12046;44.702;10.622;2024-01-10T09:08:00;11.55;;;8.00;;
23730;SDS011;12046;44.702;10.622;2024-01-10T09:10:25;10.23;;;7.97;;
23730;SDS011;12046;44.702;10.622;2024-01-10T09:12:53;11.15;;;9.40;;
23730;SDS011;12046;44.702;10.622;2024-01-10T09:15:19;12.60;;;9.45;;
23730;SDS011;12046;44.702;10.622;2024-01-10T09:17:45;11.85;;;9.23;;
23730;SDS011;12046;44.702;10.622;2024-01-10T09:20:11;15.27;;;10.50;;
23730;SDS011;12046;44.702;10.622;2024-01-10T09:22:38;11.82;;;9.48;;
23730;SDS011;12046;44.702;10.622;2024-01-10T09:25:06;13.77;;;10.05;;
23730;SDS011;12046;44.702;10.622;2024-01-10T09:27:32;13.35;;;9.25;;
23730;SDS011;12046;44.702;10.622;2024-01-10T09:30:02;13.05;;;8.30;;
23730;SDS011;12046;44.702;10.622;2024-01-10T09:32:28;12.88;;;9.52;;
23730;SDS011;12046;44.702;10.622;2024-01-10T09:34:55;10.52;;;8.80;;
23730;SDS011;12046;44.702;10.622;2024-01-10T09:37:22;10.73;;;8.77;;
23730;SDS011;12046;44.702;10.622;2024-01-10T09:39:49;14.38;;;9.20;;
23730;SDS011;12046;44.702;10.622;2024-01-10T09:42:15;16.05;;;9.35;;
23730;SDS011;12046;44.702;10.622;2024-01-10T09:44:41;12.50;;;8.55;;
23730;SDS011;12046;44.702;10.622;2024-01-10T09:47:07;12.63;;;9.55;;
23730;SDS011;12046;44.702;10.622;2024-01-10T09:49:33;13.10;;;8.70;;
23730;SDS011;12046;44.702;10.622;2024-01-10T09:51:59;12.82;;;9.35;;
23730;SDS011;12046;44.702;10.622;2024-01-10T09:54:29;12.80;;;8.95;;
23730;SDS011;12046;44.702;10.622;2024-01-10T09:56:55;10.68;;;8.63;;
23730;SDS011;12046;44.702;10.622;2024-01-10T09:59:21;13.75;;;10.48;;
23730;SDS011;12046;44.702;10.622;2024-01-10T10:01:47;10.10;;;9.00;;
23730;SDS011;12046;44.702;10.622;2024-01-10T10:04:13;12.35;;;9.82;;
23730;SDS011;12046;44.702;10.622;2024-01-10T10:06:40;13.98;;;9.70;;
23730;SDS011;12046;44.702;10.622;2024-01-10T10:09:06;10.18;;;8.85;;
23730;SDS011;12046;44.702;10.622;2024-01-10T10:11:33;10.40;;;8.38;;
23730;SDS011;12046;44.702;10.622;2024-01-10T10:16:54;11.90;;;8.60;;
23730;SDS011;12046;44.702;10.622;2024-01-10T10:19:23;9.70;;;8.70;;
23730;SDS011;12046;44.702;10.622;2024-01-10T10:21:50;10.23;;;8.23;;
23730;SDS011;12046;44.702;10.622;2024-01-10T10:24:15;9.95;;;8.10;;
23730;SDS011;12046;44.702;10.622;2024-01-10T10:26:42;8.43;;;7.53;;
23730;SDS011;12046;44.702;10.622;2024-01-10T10:29:08;8.25;;;7.45;;
23730;SDS011;12046;44.702;10.622;2024-01-10T10:31:48;8.43;;;7.53;;
23730;SDS011;12046;44.702;10.622;2024-01-10T10:34:14;7.93;;;7.13;;
23730;SDS011;12046;44.702;10.622;2024-01-10T10:36:46;8.18;;;7.30;;
23730;SDS011;12046;44.702;10.622;2024-01-10T10:39:15;7.22;;;6.50;;
23730;SDS011;12046;44.702;10.622;2024-01-10T10:41:41;9.18;;;7.53;;
23730;SDS011;12046;44.702;10.622;2024-01-10T10:44:07;10.25;;;7.82;;
23730;SDS011;12046;44.702;10.622;2024-01-10T10:46:34;9.30;;;7.70;;
23730;SDS011;12046;44.702;10.622;2024-01-10T10:49:00;9.32;;;7.55;;
23730;SDS011;12046;44.702;10.622;2024-01-10T10:51:34;8.32;;;7.50;;
23730;SDS011;12046;44.702;10.622;2024-01-10T10:54:02;7.95;;;7.15;;
23730;SDS011;12046;44.702;10.622;2024-01-10T10:56:32;8.43;;;7.53;;
23730;SDS011;12046;44.702;10.622;2024-01-10T10:58:58;9.15;;;7.43;;
23730;SDS011;12046;44.702;10.622;2024-01-10T11:01:26;8.35;;;7.55;;
23730;SDS011;12046;44.702;10.622;2024-01-10T11:03:52;8.20;;;7.40;;
23730;SDS011;12046;44.702;10.622;2024-01-10T11:06:20;8.18;;;7.20;;
23730;SDS011;12046;44.702;10.622;2024-01-10T11:21:33;7.70;;;6.97;;
23730;SDS011;12046;44.702;10.622;2024-01-10T11:24:03;8.82;;;7.75;;
23730;SDS011;12046;44.702;10.622;2024-01-10T11:26:31;11.05;;;7.88;;
23730;SDS011;12046;44.702;10.622;2024-01-10T11:28:58;9.10;;;8.20;;
23730;SDS011;12046;44.702;10.622;2024-01-10T11:31:29;9.45;;;7.40;;
23730;SDS011;12046;44.702;10.622;2024-01-10T11:33:55;8.55;;;7.70;;
23730;SDS011;12046;44.702;10.622;2024-01-10T11:36:22;8.30;;;7.50;;
23730;SDS011;12046;44.702;10.622;2024-01-10T11:41:21;9.88;;;7.80;;
23730;SDS011;12046;44.702;10.622;2024-01-10T11:46:32;9.00;;;8.10;;
23730;SDS011;12046;44.702;10.622;2024-01-10T11:48:58;7.65;;;6.85;;
23730;SDS011;12046;44.702;10.622;2024-01-10T11:51:24;8.18;;;7.38;;
23730;SDS011;12046;44.702;10.622;2024-01-10T11:53:50;7.70;;;7.00;;
23730;SDS011;12046;44.702;10.622;2024-01-10T11:56:18;9.10;;;8.20;;
23730;SDS011;12046;44.702;10.622;2024-01-10T11:58:54;9.07;;;7.65;;
23730;SDS011;12046;44.702;10.622;2024-01-10T12:01:20;9.55;;;7.97;;
23730;SDS011;12046;44.702;10.622;2024-01-10T12:03:46;8.40;;;7.55;;
23730;SDS011;12046;44.702;10.622;2024-01-10T12:06:14;9.05;;;8.15;;
23730;SDS011;12046;44.702;10.622;2024-01-10T12:08:40;8.15;;;7.35;;
23730;SDS011;12046;44.702;10.622;2024-01-10T12:11:06;8.13;;;7.32;;
23730;SDS011;12046;44.702;10.622;2024-01-10T12:13:31;7.85;;;7.15;;
23730;SDS011;12046;44.702;10.622;2024-01-10T12:15:57;9.55;;;7.63;;
23730;SDS011;12046;44.702;10.622;2024-01-10T12:18:23;8.10;;;7.30;;
23730;SDS011;12046;44.702;10.622;2024-01-10T12:20:49;8.70;;;7.22;;
23730;SDS011;12046;44.702;10.622;2024-01-10T12:23:15;8.02;;;7.30;;
23730;SDS011;12046;44.702;10.622;2024-01-10T12:25:40;8.13;;;7.32;;
23730;SDS011;12046;44.702;10.622;2024-01-10T12:28:06;9.40;;;7.85;;
23730;SDS011;12046;44.702;10.622;2024-01-10T12:30:32;8.48;;;7.68;;
23730;SDS011;12046;44.702;10.622;2024-01-10T12:33:00;8.68;;;7.75;;
23730;SDS011;12046;44.702;10.622;2024-01-10T12:35:27;9.75;;;7.47;;
23730;SDS011;12046;44.702;10.622;2024-01-10T12:37:53;9.60;;;8.68;;
23730;SDS011;12046;44.702;10.622;2024-01-10T12:40:19;8.85;;;7.63;;
23730;SDS011;12046;44.702;10.622;2024-01-10T12:42:44;9.35;;;7.43;;
23730;SDS011;12046;44.702;10.622;2024-01-10T12:45:20;8.63;;;7.75;;
23730;SDS011;12046;44.702;10.622;2024-01-10T12:47:46;9.23;;;8.32;;
23730;SDS011;12046;44.702;10.622;2024-01-10T12:50:12;9.02;;;8.10;;
23730;SDS011;12046;44.702;10.622;2024-01-10T12:52:38;9.38;;;7.82;;
23730;SDS011;12046;44.702;10.622;2024-01-10T12:55:05;8.55;;;7.65;;
23730;SDS011;12046;44.702;10.622;2024-01-10T12:57:31;8.35;;;7.50;;
23730;SDS011;12046;44.702;10.622;2024-01-10T12:59:57;8.45;;;7.45;;
23730;SDS011;12046;44.702;10.622;2024-01-10T13:02:23;8.10;;;7.25;;
23730;SDS011;12046;44.702;10.622;2024-01-10T13:04:49;10.02;;;8.15;;
23730;SDS011;12046;44.702;10.622;2024-01-10T13:07:15;8.10;;;7.30;;
23730;SDS011;12046;44.702;10.622;2024-01-10T13:09:41;8.00;;;7.20;;
23730;SDS011;12046;44.702;10.622;2024-01-10T13:12:07;8.00;;;7.20;;
23730;SDS011;12046;44.702;10.622;2024-01-10T13:14:33;8.32;;;7.45;;
23730;SDS011;12046;44.702;10.622;2024-01-10T13:16:59;8.27;;;7.40;;
23730;SDS011;12046;44.702;10.622;2024-01-10T13:19:25;8.38;;;7.57;;
23730;SDS011;12046;44.702;10.622;2024-01-10T13:21:52;8.10;;;7.38;;
23730;SDS011;12046;44.702;10.622;2024-01-10T13:24:19;8.52;;;6.95;;
23730;SDS011;12046;44.702;10.622;2024-01-10T13:26:44;8.43;;;7.63;;
23730;SDS011;12046;44.702;10.622;2024-01-10T13:29:10;7.78;;;7.07;;
23730;SDS011;12046;44.702;10.622;2024-01-10T13:31:39;7.60;;;6.90;;
23730;SDS011;12046;44.702;10.622;2024-01-10T13:34:05;8.55;;;7.75;;
23730;SDS011;12046;44.702;10.622;2024-01-10T13:36:30;7.60;;;6.90;;
23730;SDS011;12046;44.702;10.622;2024-01-10T13:38:57;8.30;;;7.40;;
23730;SDS011;12046;44.702;10.622;2024-01-10T13:41:25;7.68;;;6.95;;
23730;SDS011;12046;44.702;10.622;2024-01-10T13:43:54;7.53;;;6.85;;
23730;SDS011;12046;44.702;10.622;2024-01-10T13:46:26;9.18;;;8.27;;
23730;SDS011;12046;44.702;10.622;2024-01-10T13:48:54;8.27;;;7.47;;
23730;SDS011;12046;44.702;10.622;2024-01-10T13:51:24;7.80;;;7.18;;
23730;SDS011;12046;44.702;10.622;2024-01-10T13:53:54;8.18;;;7.47;;
23730;SDS011;12046;44.702;10.622;2024-01-10T13:56:21;7.80;;;7.10;;
23730;SDS011;12046;44.702;10.622;2024-01-10T13:58:48;8.38;;;7.68;;
23730;SDS011;12046;44.702;10.622;2024-01-10T14:01:14;8.35;;;7.53;;
23730;SDS011;12046;44.702;10.622;2024-01-10T14:03:39;8.68;;;7.88;;
23730;SDS011;12046;44.702;10.622;2024-01-10T14:06:05;8.38;;;7.57;;
23730;SDS011;12046;44.702;10.622;2024-01-10T14:08:31;8.10;;;7.40;;
23730;SDS011;12046;44.702;10.622;2024-01-10T14:10:57;8.20;;;7.50;;
23730;SDS011;12046;44.702;10.622;2024-01-10T14:13:22;8.15;;;7.45;;
23730;SDS011;12046;44.702;10.622;2024-01-10T14:15:48;7.78;;;7.07;;
23730;SDS011;12046;44.702;10.622;2024-01-10T14:18:14;8.25;;;7.45;;
23730;SDS011;12046;44.702;10.622;2024-01-10T14:20:40;8.18;;;7.38;;
23730;SDS011;12046;44.702;10.622;2024-01-10T14:23:06;8.77;;;7.97;;
23730;SDS011;12046;44.702;10.622;2024-01-10T14:25:31;8.27;;;7.53;;
23730;SDS011;12046;44.702;10.622;2024-01-10T14:27:57;8.32;;;7.57;;
23730;SDS011;12046;44.702;10.622;2024-01-10T14:30:26;8.27;;;7.47;;
23730;SDS011;12046;44.702;10.622;2024-01-10T14:32:52;9.25;;;7.75;;
23730;SDS011;12046;44.702;10.622;2024-01-10T14:35:18;8.35;;;7.57;;
23730;SDS011;12046;44.702;10.622;2024-01-10T14:37:44;7.93;;;7.22;;
23730;SDS011;12046;44.702;10.622;2024-01-10T14:40:10;8.75;;;7.95;;
23730;SDS011;12046;44.702;10.622;2024-01-10T14:42:38;8.68;;;7.78;;
23730;SDS011;12046;44.702;10.622;2024-01-10T14:45:13;7.57;;;6.88;;